sensor_id;sensor_type;location;lat;lon;timestamp;pressure;altitude;pressure_sealevel;temperature;humidity
46836;BME280;32573;51.290;6.926;2022-08-25T00:01:51;100291.59;;;24.32;65.34
46836;BME280;32573;51.290;6.926;2022-08-25T00:04:21;100292.53;;;24.30;64.95
46836;BME280;32573;51.290;6.926;2022-08-25T00:06:50;100292.72;;;24.24;65.17
46836;BME280;32573;51.290;6.926;2022-08-25T00:09:27;100294.59;;;24.20;65.41
46836;BME280;32573;51.290;6.926;2022-08-25T00:11:56;100283.97;;;24.17;65.21
46836;BME280;32573;51.290;6.926;2022-08-25T00:14:28;100286.72;;;24.14;65.43
46836;BME280;32573;51.290;6.926;2022-08-25T00:16:58;100285.88;;;24.12;65.64
46836;BME280;32573;51.290;6.926;2022-08-25T00:19:29;100283.31;;;24.09;65.38
46836;BME280;32573;51.290;6.926;2022-08-25T00:22:01;100276.22;;;24.06;65.29
46836;BME280;32573;51.290;6.926;2022-08-25T00:24:30;100284.28;;;24.05;65.65
46836;BME280;32573;51.290;6.926;2022-08-25T00:26:59;100286.09;;;24.04;65.60
46836;BME280;32573;51.290;6.926;2022-08-25T00:29:29;100287.88;;;24.04;65.15
46836;BME280;32573;51.290;6.926;2022-08-25T00:32:00;100277.19;;;24.04;65.54
46836;BME280;32573;51.290;6.926;2022-08-25T00:34:33;100288.78;;;24.03;65.68
46836;BME280;32573;51.290;6.926;2022-08-25T00:37:06;100282.59;;;24.01;65.51
46836;BME280;32573;51.290;6.926;2022-08-25T00:39:36;100282.59;;;24.01;65.40
46836;BME280;32573;51.290;6.926;2022-08-25T00:42:05;100285.31;;;23.99;65.46
46836;BME280;32573;51.290;6.926;2022-08-25T00:44:42;100289.78;;;23.99;65.64
46836;BME280;32573;51.290;6.926;2022-08-25T00:47:12;100283.59;;;23.97;65.67
46836;BME280;32573;51.290;6.926;2022-08-25T00:49:44;100296.06;;;23.96;65.74
46836;BME280;32573;51.290;6.926;2022-08-25T00:52:15;100292.59;;;23.94;65.54
46836;BME280;32573;51.290;6.926;2022-08-25T00:54:49;100283.72;;;23.92;66.11
46836;BME280;32573;51.290;6.926;2022-08-25T00:57:22;100286.47;;;23.89;65.77
46836;BME280;32573;51.290;6.926;2022-08-25T01:00:07;100289.16;;;23.89;66.01
46836;BME280;32573;51.290;6.926;2022-08-25T01:02:37;100289.19;;;23.87;66.05
46836;BME280;32573;51.290;6.926;2022-08-25T01:05:06;100284.75;;;23.86;66.15
46836;BME280;32573;51.290;6.926;2022-08-25T01:07:35;100292.84;;;23.83;66.85
46836;BME280;32573;51.290;6.926;2022-08-25T01:10:05;100285.75;;;23.81;67.03
46836;BME280;32573;51.290;6.926;2022-08-25T01:12:34;100295.66;;;23.77;67.32
46836;BME280;32573;51.290;6.926;2022-08-25T01:15:06;100285.97;;;23.73;67.66
46836;BME280;32573;51.290;6.926;2022-08-25T01:17:46;100292.28;;;23.69;68.20
46836;BME280;32573;51.290;6.926;2022-08-25T01:20:16;100296.84;;;23.64;68.04
46836;BME280;32573;51.290;6.926;2022-08-25T01:22:48;100295.16;;;23.60;68.59
46836;BME280;32573;51.290;6.926;2022-08-25T01:25:35;100290.78;;;23.56;69.48
46836;BME280;32573;51.290;6.926;2022-08-25T01:28:09;100294.47;;;23.52;69.41
46836;BME280;32573;51.290;6.926;2022-08-25T01:30:37;100289.16;;;23.48;69.93
46836;BME280;32573;51.290;6.926;2022-08-25T01:33:08;100298.19;;;23.44;70.17
46836;BME280;32573;51.290;6.926;2022-08-25T01:35:38;100292.94;;;23.40;70.11
46836;BME280;32573;51.290;6.926;2022-08-25T01:38:08;100296.66;;;23.34;70.46
46836;BME280;32573;51.290;6.926;2022-08-25T01:40:38;100295.91;;;23.26;70.75
46836;BME280;32573;51.290;6.926;2022-08-25T01:43:12;100304.88;;;23.23;71.20
46836;BME280;32573;51.290;6.926;2022-08-25T01:45:46;100310.38;;;23.17;71.69
46836;BME280;32573;51.290;6.926;2022-08-25T01:48:15;100299.78;;;23.13;72.06
46836;BME280;32573;51.290;6.926;2022-08-25T01:50:43;100311.44;;;23.09;72.22
46836;BME280;32573;51.290;6.926;2022-08-25T01:53:21;100304.41;;;23.04;73.24
46836;BME280;32573;51.290;6.926;2022-08-25T01:55:50;100301.84;;;22.98;73.18
46836;BME280;32573;51.290;6.926;2022-08-25T01:58:30;100306.38;;;22.93;73.29
46836;BME280;32573;51.290;6.926;2022-08-25T02:01:00;100304.69;;;22.89;73.51
46836;BME280;32573;51.290;6.926;2022-08-25T02:03:29;100307.47;;;22.85;74.01
46836;BME280;32573;51.290;6.926;2022-08-25T02:05:59;100296.84;;;22.81;74.58
46836;BME280;32573;51.290;6.926;2022-08-25T02:08:32;100297.78;;;22.79;75.06
46836;BME280;32573;51.290;6.926;2022-08-25T02:11:00;100297.91;;;22.73;75.46
46836;BME280;32573;51.290;6.926;2022-08-25T02:13:29;100295.31;;;22.68;75.70
46836;BME280;32573;51.290;6.926;2022-08-25T02:15:59;100297.19;;;22.65;75.79
46836;BME280;32573;51.290;6.926;2022-08-25T02:18:28;100299.94;;;22.60;76.21
46836;BME280;32573;51.290;6.926;2022-08-25T02:20:57;100300.03;;;22.55;76.73
46836;BME280;32573;51.290;6.926;2022-08-25T02:23:25;100301.88;;;22.52;76.91
46836;BME280;32573;51.290;6.926;2022-08-25T02:25:55;100294.84;;;22.46;77.81
46836;BME280;32573;51.290;6.926;2022-08-25T02:28:24;100294.03;;;22.43;78.34
46836;BME280;32573;51.290;6.926;2022-08-25T02:30:53;100294.97;;;22.40;78.98
46836;BME280;32573;51.290;6.926;2022-08-25T02:33:27;100296.84;;;22.35;78.85
46836;BME280;32573;51.290;6.926;2022-08-25T02:35:57;100296.94;;;22.30;79.18
46836;BME280;32573;51.290;6.926;2022-08-25T02:38:26;100301.47;;;22.25;79.83
46836;BME280;32573;51.290;6.926;2022-08-25T02:40:57;100293.53;;;22.21;80.12
46836;BME280;32573;51.290;6.926;2022-08-25T02:43:27;100298.97;;;22.14;80.50
46836;BME280;32573;51.290;6.926;2022-08-25T02:45:55;100293.72;;;22.08;81.48
46836;BME280;32573;51.290;6.926;2022-08-25T02:48:25;100291.13;;;22.04;81.94
46836;BME280;32573;51.290;6.926;2022-08-25T02:50:54;100298.31;;;21.98;82.48
46836;BME280;32573;51.290;6.926;2022-08-25T02:53:27;100288.66;;;21.93;82.60
46836;BME280;32573;51.290;6.926;2022-08-25T02:55:58;100286.06;;;21.88;83.27
46836;BME280;32573;51.290;6.926;2022-08-25T02:58:26;100287.91;;;21.85;83.41
46836;BME280;32573;51.290;6.926;2022-08-25T03:00:55;100284.41;;;21.81;84.12
46836;BME280;32573;51.290;6.926;2022-08-25T03:03:24;100283.59;;;21.78;83.88
46836;BME280;32573;51.290;6.926;2022-08-25T03:05:53;100274.78;;;21.72;84.42
46836;BME280;32573;51.290;6.926;2022-08-25T03:08:22;100273.06;;;21.68;84.62
46836;BME280;32573;51.290;6.926;2022-08-25T03:10:53;100265.13;;;21.65;84.68
46836;BME280;32573;51.290;6.926;2022-08-25T03:13:30;100266.97;;;21.60;85.59
46836;BME280;32573;51.290;6.926;2022-08-25T03:15:59;100267.91;;;21.56;85.71
46836;BME280;32573;51.290;6.926;2022-08-25T03:18:29;100252.91;;;21.52;86.36
46836;BME280;32573;51.290;6.926;2022-08-25T03:20:58;100253.84;;;21.48;87.28
46836;BME280;32573;51.290;6.926;2022-08-25T03:23:26;100257.44;;;21.45;87.58
46836;BME280;32573;51.290;6.926;2022-08-25T03:25:55;100253.94;;;21.42;87.59
46836;BME280;32573;51.290;6.926;2022-08-25T03:28:42;100250.44;;;21.40;88.21
46836;BME280;32573;51.290;6.926;2022-08-25T03:31:11;100246.00;;;21.37;88.81
46836;BME280;32573;51.290;6.926;2022-08-25T03:33:39;100246.00;;;21.34;88.98
46836;BME280;32573;51.290;6.926;2022-08-25T03:36:08;100248.72;;;21.32;89.56
46836;BME280;32573;51.290;6.926;2022-08-25T03:38:38;100251.41;;;21.31;90.24
46836;BME280;32573;51.290;6.926;2022-08-25T03:41:12;100251.44;;;21.28;91.10
46836;BME280;32573;51.290;6.926;2022-08-25T03:43:43;100252.38;;;21.25;91.10
46836;BME280;32573;51.290;6.926;2022-08-25T03:46:18;100252.44;;;21.22;90.80
46836;BME280;32573;51.290;6.926;2022-08-25T03:48:47;100247.16;;;21.19;91.24
46836;BME280;32573;51.290;6.926;2022-08-25T03:51:20;100248.94;;;21.17;92.09
46836;BME280;32573;51.290;6.926;2022-08-25T03:53:49;100240.09;;;21.15;91.93
46836;BME280;32573;51.290;6.926;2022-08-25T03:56:18;100244.56;;;21.11;92.21
46836;BME280;32573;51.290;6.926;2022-08-25T03:58:49;100241.94;;;21.10;92.81
46836;BME280;32573;51.290;6.926;2022-08-25T04:01:17;100245.50;;;21.09;92.92
46836;BME280;32573;51.290;6.926;2022-08-25T04:03:46;100246.41;;;21.08;93.35
46836;BME280;32573;51.290;6.926;2022-08-25T04:06:16;100242.00;;;21.07;93.50
46836;BME280;32573;51.290;6.926;2022-08-25T04:08:45;100235.75;;;21.06;94.02
46836;BME280;32573;51.290;6.926;2022-08-25T04:11:16;100225.13;;;21.06;94.42
46836;BME280;32573;51.290;6.926;2022-08-25T04:13:45;100226.03;;;21.05;94.49
46836;BME280;32573;51.290;6.926;2022-08-25T04:16:18;100222.50;;;21.05;95.15
46836;BME280;32573;51.290;6.926;2022-08-25T04:18:47;100219.84;;;21.03;95.38
46836;BME280;32573;51.290;6.926;2022-08-25T04:21:16;100219.84;;;21.03;95.67
46836;BME280;32573;51.290;6.926;2022-08-25T04:23:48;100213.66;;;21.03;95.98
46836;BME280;32573;51.290;6.926;2022-08-25T04:26:19;100219.88;;;21.02;96.17
46836;BME280;32573;51.290;6.926;2022-08-25T04:28:48;100219.88;;;21.02;96.38
46836;BME280;32573;51.290;6.926;2022-08-25T04:31:19;100218.09;;;21.01;97.07
46836;BME280;32573;51.290;6.926;2022-08-25T04:33:48;100221.63;;;21.01;97.13
46836;BME280;32573;51.290;6.926;2022-08-25T04:36:18;100224.34;;;21.00;97.34
46836;BME280;32573;51.290;6.926;2022-08-25T04:38:48;100223.44;;;21.01;97.99
46836;BME280;32573;51.290;6.926;2022-08-25T04:41:19;100235.00;;;21.00;98.26
46836;BME280;32573;51.290;6.926;2022-08-25T04:43:48;100227.88;;;21.00;98.55
46836;BME280;32573;51.290;6.926;2022-08-25T04:46:21;100235.00;;;21.00;99.33
46836;BME280;32573;51.290;6.926;2022-08-25T04:48:50;100233.22;;;20.99;99.18
46836;BME280;32573;51.290;6.926;2022-08-25T04:51:23;100232.34;;;20.98;99.87
46836;BME280;32573;51.290;6.926;2022-08-25T04:53:52;100229.72;;;20.97;100.00
46836;BME280;32573;51.290;6.926;2022-08-25T04:56:22;100221.75;;;20.95;100.00
46836;BME280;32573;51.290;6.926;2022-08-25T04:58:51;100217.31;;;20.94;100.00
46836;BME280;32573;51.290;6.926;2022-08-25T05:01:23;100219.09;;;20.94;100.00
46836;BME280;32573;51.290;6.926;2022-08-25T05:03:53;100217.34;;;20.93;100.00
46836;BME280;32573;51.290;6.926;2022-08-25T05:06:23;100217.34;;;20.93;100.00
46836;BME280;32573;51.290;6.926;2022-08-25T05:08:52;100216.47;;;20.92;100.00
46836;BME280;32573;51.290;6.926;2022-08-25T05:11:20;100210.25;;;20.92;100.00
46836;BME280;32573;51.290;6.926;2022-08-25T05:13:51;100209.38;;;20.91;100.00
46836;BME280;32573;51.290;6.926;2022-08-25T05:16:24;100210.28;;;20.90;100.00
46836;BME280;32573;51.290;6.926;2022-08-25T05:18:54;100211.16;;;20.90;100.00
46836;BME280;32573;51.290;6.926;2022-08-25T05:21:26;100220.88;;;20.92;100.00
46836;BME280;32573;51.290;6.926;2022-08-25T05:23:56;100217.34;;;20.93;100.00
46836;BME280;32573;51.290;6.926;2022-08-25T05:26:26;100215.53;;;20.95;100.00
46836;BME280;32573;51.290;6.926;2022-08-25T05:28:57;100216.41;;;20.97;100.00
46836;BME280;32573;51.290;6.926;2022-08-25T05:31:27;100217.25;;;20.99;100.00
46836;BME280;32573;51.290;6.926;2022-08-25T05:33:57;100208.34;;;21.01;100.00
46836;BME280;32573;51.290;6.926;2022-08-25T05:36:27;100210.06;;;21.04;100.00
46836;BME280;32573;51.290;6.926;2022-08-25T05:38:55;100213.59;;;21.06;100.00
46836;BME280;32573;51.290;6.926;2022-08-25T05:41:26;100203.81;;;21.08;100.00
46836;BME280;32573;51.290;6.926;2022-08-25T05:43:55;100205.59;;;21.07;100.00
46836;BME280;32573;51.290;6.926;2022-08-25T05:46:24;100204.69;;;21.10;100.00
46836;BME280;32573;51.290;6.926;2022-08-25T05:48:54;100201.97;;;21.13;100.00
46836;BME280;32573;51.290;6.926;2022-08-25T05:51:22;100206.34;;;21.17;100.00
46836;BME280;32573;51.290;6.926;2022-08-25T05:53:54;100208.03;;;21.21;100.00
46836;BME280;32573;51.290;6.926;2022-08-25T05:56:22;100202.69;;;21.24;100.00
46836;BME280;32573;51.290;6.926;2022-08-25T05:58:50;100202.63;;;21.27;100.00
46836;BME280;32573;51.290;6.926;2022-08-25T06:01:22;100203.47;;;21.31;100.00
46836;BME280;32573;51.290;6.926;2022-08-25T06:04:13;100196.28;;;21.36;100.00
46836;BME280;32573;51.290;6.926;2022-08-25T06:06:42;100198.91;;;21.41;100.00
46836;BME280;32573;51.290;6.926;2022-08-25T06:09:10;100191.75;;;21.44;100.00
46836;BME280;32573;51.290;6.926;2022-08-25T06:11:39;100194.31;;;21.50;100.00
46836;BME280;32573;51.290;6.926;2022-08-25T06:14:09;100191.56;;;21.55;100.00
46836;BME280;32573;51.290;6.926;2022-08-25T06:16:38;100195.03;;;21.60;100.00
46836;BME280;32573;51.290;6.926;2022-08-25T06:19:08;100194.91;;;21.69;100.00
46836;BME280;32573;51.290;6.926;2022-08-25T06:21:38;100199.22;;;21.75;100.00
46836;BME280;32573;51.290;6.926;2022-08-25T06:24:07;100196.44;;;21.83;100.00
46836;BME280;32573;51.290;6.926;2022-08-25T06:26:41;100199.88;;;21.89;100.00
46836;BME280;32573;51.290;6.926;2022-08-25T06:29:10;100211.28;;;21.97;100.00
46836;BME280;32573;51.290;6.926;2022-08-25T06:31:40;100206.66;;;22.06;100.00
46836;BME280;32573;51.290;6.926;2022-08-25T06:34:09;100203.00;;;22.11;100.00
46836;BME280;32573;51.290;6.926;2022-08-25T06:36:39;100211.78;;;22.20;100.00
46836;BME280;32573;51.290;6.926;2022-08-25T06:39:08;100201.00;;;22.26;100.00
46836;BME280;32573;51.290;6.926;2022-08-25T06:41:37;100210.63;;;22.34;100.00
46836;BME280;32573;51.290;6.926;2022-08-25T06:44:05;100214.94;;;22.40;100.00
46836;BME280;32573;51.290;6.926;2022-08-25T06:46:34;100213.91;;;22.47;100.00
46836;BME280;32573;51.290;6.926;2022-08-25T06:49:03;100205.75;;;22.55;100.00
46836;BME280;32573;51.290;6.926;2022-08-25T06:51:33;100216.25;;;22.63;100.00
46836;BME280;32573;51.290;6.926;2022-08-25T06:54:05;100215.22;;;22.70;100.00
46836;BME280;32573;51.290;6.926;2022-08-25T06:56:33;100222.16;;;22.78;100.00
46836;BME280;32573;51.290;6.926;2022-08-25T06:59:03;100223.78;;;22.86;100.00
46836;BME280;32573;51.290;6.926;2022-08-25T07:01:31;100224.53;;;22.92;100.00
46836;BME280;32573;51.290;6.926;2022-08-25T07:04:03;100232.41;;;23.00;100.00
46836;BME280;32573;51.290;6.926;2022-08-25T07:06:39;100234.91;;;23.08;100.00
46836;BME280;32573;51.290;6.926;2022-08-25T07:09:10;100239.19;;;23.15;100.00
46836;BME280;32573;51.290;6.926;2022-08-25T07:11:39;100237.31;;;23.20;100.00
46836;BME280;32573;51.290;6.926;2022-08-25T07:14:10;100228.25;;;23.25;100.00
46836;BME280;32573;51.290;6.926;2022-08-25T07:16:39;100240.56;;;23.33;100.00
46836;BME280;32573;51.290;6.926;2022-08-25T07:19:17;100221.75;;;23.37;100.00
46836;BME280;32573;51.290;6.926;2022-08-25T07:21:51;100224.25;;;23.43;100.00
46836;BME280;32573;51.290;6.926;2022-08-25T07:24:22;100221.47;;;23.50;100.00
46836;BME280;32573;51.290;6.926;2022-08-25T07:26:51;100219.56;;;23.55;100.00
46836;BME280;32573;51.290;6.926;2022-08-25T07:29:21;100214.03;;;23.61;100.00
46836;BME280;32573;51.290;6.926;2022-08-25T07:31:59;100204.97;;;23.68;100.00
46836;BME280;32573;51.290;6.926;2022-08-25T07:34:28;100213.78;;;23.73;100.00
46836;BME280;32573;51.290;6.926;2022-08-25T07:37:20;100212.69;;;23.80;100.00
46836;BME280;32573;51.290;6.926;2022-08-25T07:40:12;100211.66;;;23.86;100.00
46836;BME280;32573;51.290;6.926;2022-08-25T07:42:42;100216.88;;;23.90;100.00
46836;BME280;32573;51.290;6.926;2022-08-25T07:45:12;100208.66;;;23.98;100.00
46836;BME280;32573;51.290;6.926;2022-08-25T07:47:47;100217.38;;;24.06;100.00
46836;BME280;32573;51.290;6.926;2022-08-25T07:50:18;100213.59;;;24.14;100.00
46836;BME280;32573;51.290;6.926;2022-08-25T07:52:47;100208.97;;;24.20;100.00
46836;BME280;32573;51.290;6.926;2022-08-25T07:55:23;100218.56;;;24.29;100.00
46836;BME280;32573;51.290;6.926;2022-08-25T07:57:53;100217.44;;;24.36;100.00
46836;BME280;32573;51.290;6.926;2022-08-25T08:00:24;100213.72;;;24.42;100.00
46836;BME280;32573;51.290;6.926;2022-08-25T08:02:54;100212.69;;;24.49;100.00
46836;BME280;32573;51.290;6.926;2022-08-25T08:05:24;100223.16;;;24.57;100.00
46836;BME280;32573;51.290;6.926;2022-08-25T08:07:54;100222.00;;;24.65;100.00
46836;BME280;32573;51.290;6.926;2022-08-25T08:10:25;100224.50;;;24.71;100.00
46836;BME280;32573;51.290;6.926;2022-08-25T08:13:13;100211.75;;;24.80;100.00
46836;BME280;32573;51.290;6.926;2022-08-25T08:15:45;100202.66;;;24.85;100.00
46836;BME280;32573;51.290;6.926;2022-08-25T08:18:14;100204.25;;;24.91;100.00
46836;BME280;32573;51.290;6.926;2022-08-25T08:20:45;100203.16;;;24.98;100.00
46836;BME280;32573;51.290;6.926;2022-08-25T08:23:14;100200.34;;;25.03;100.00
46836;BME280;32573;51.290;6.926;2022-08-25T08:25:44;100200.09;;;25.10;100.00
46836;BME280;32573;51.290;6.926;2022-08-25T08:28:13;100200.84;;;25.15;100.00
46836;BME280;32573;51.290;6.926;2022-08-25T08:30:43;100202.44;;;25.23;100.00
46836;BME280;32573;51.290;6.926;2022-08-25T08:33:21;100195.13;;;25.28;100.00
46836;BME280;32573;51.290;6.926;2022-08-25T08:35:58;100202.03;;;25.35;100.00
46836;BME280;32573;51.290;6.926;2022-08-25T08:38:32;100197.38;;;25.42;100.00
46836;BME280;32573;51.290;6.926;2022-08-25T08:41:14;100192.66;;;25.48;100.00
46836;BME280;32573;51.290;6.926;2022-08-25T08:44:25;100180.81;;;25.55;100.00
46836;BME280;32573;51.290;6.926;2022-08-25T08:47:04;100182.31;;;25.64;100.00
46836;BME280;32573;51.290;6.926;2022-08-25T08:49:45;100182.03;;;25.72;100.00
46836;BME280;32573;51.290;6.926;2022-08-25T08:52:18;100175.56;;;25.79;100.00
46836;BME280;32573;51.290;6.926;2022-08-25T08:54:57;100178.94;;;25.84;100.00
46836;BME280;32573;51.290;6.926;2022-08-25T08:57:29;100170.66;;;25.92;100.00
46836;BME280;32573;51.290;6.926;2022-08-25T09:00:04;100175.78;;;25.98;100.00
46836;BME280;32573;51.290;6.926;2022-08-25T09:02:35;100177.34;;;26.05;100.00
46836;BME280;32573;51.290;6.926;2022-08-25T09:05:19;100169.88;;;26.13;100.00
46836;BME280;32573;51.290;6.926;2022-08-25T09:07:54;100161.56;;;26.21;99.87
46836;BME280;32573;51.290;6.926;2022-08-25T09:10:25;100161.28;;;26.29;98.95
46836;BME280;32573;51.290;6.926;2022-08-25T09:13:00;100160.09;;;26.36;99.14
46836;BME280;32573;51.290;6.926;2022-08-25T09:15:44;100154.38;;;26.45;99.02
46836;BME280;32573;51.290;6.926;2022-08-25T09:18:41;100150.53;;;26.52;98.50
46836;BME280;32573;51.290;6.926;2022-08-25T09:21:23;100150.28;;;26.60;98.50
46836;BME280;32573;51.290;6.926;2022-08-25T09:24:06;100142.88;;;26.66;97.61
46836;BME280;32573;51.290;6.926;2022-08-25T09:26:44;100142.63;;;26.73;97.83
46836;BME280;32573;51.290;6.926;2022-08-25T09:29:20;100139.63;;;26.80;97.94
46836;BME280;32573;51.290;6.926;2022-08-25T09:31:55;100139.41;;;26.86;97.53
46836;BME280;32573;51.290;6.926;2022-08-25T09:34:30;100138.09;;;26.97;97.36
46836;BME280;32573;51.290;6.926;2022-08-25T09:37:01;100133.28;;;27.05;97.93
46836;BME280;32573;51.290;6.926;2022-08-25T09:39:30;100137.47;;;27.12;96.92
46836;BME280;32573;51.290;6.926;2022-08-25T09:41:59;100137.19;;;27.20;96.82
46836;BME280;32573;51.290;6.926;2022-08-25T09:44:31;100132.44;;;27.26;96.46
46836;BME280;32573;51.290;6.926;2022-08-25T09:47:05;100127.66;;;27.33;96.31
46836;BME280;32573;51.290;6.926;2022-08-25T09:49:37;100138.09;;;27.41;96.10
46836;BME280;32573;51.290;6.926;2022-08-25T09:52:25;100126.13;;;27.48;94.77
46836;BME280;32573;51.290;6.926;2022-08-25T09:55:00;100122.25;;;27.55;95.93
46836;BME280;32573;51.290;6.926;2022-08-25T09:57:32;100113.78;;;27.64;95.69
46836;BME280;32573;51.290;6.926;2022-08-25T10:00:14;100105.31;;;27.73;95.89
46836;BME280;32573;51.290;6.926;2022-08-25T10:02:45;100107.63;;;27.83;96.38
46836;BME280;32573;51.290;6.926;2022-08-25T10:05:34;100111.66;;;27.93;96.51
46836;BME280;32573;51.290;6.926;2022-08-25T10:08:11;100104.13;;;28.01;95.11
46836;BME280;32573;51.290;6.926;2022-08-25T10:10:44;100100.13;;;28.10;94.99
46836;BME280;32573;51.290;6.926;2022-08-25T10:13:16;100115.91;;;28.17;94.89
46836;BME280;32573;51.290;6.926;2022-08-25T10:16:03;100098.47;;;28.26;93.29
46836;BME280;32573;51.290;6.926;2022-08-25T10:19:04;100111.50;;;28.35;93.52
46836;BME280;32573;51.290;6.926;2022-08-25T10:21:34;100098.78;;;28.39;92.69
46836;BME280;32573;51.290;6.926;2022-08-25T10:24:05;100094.03;;;28.46;92.64
46836;BME280;32573;51.290;6.926;2022-08-25T10:26:47;100091.03;;;28.52;93.32
46836;BME280;32573;51.290;6.926;2022-08-25T10:29:31;100103.16;;;28.60;92.50
46836;BME280;32573;51.290;6.926;2022-08-25T10:32:08;100083.06;;;28.68;91.85
46836;BME280;32573;51.290;6.926;2022-08-25T10:34:45;100091.59;;;28.77;92.17
46836;BME280;32573;51.290;6.926;2022-08-25T10:37:27;100083.94;;;28.87;91.45
46836;BME280;32573;51.290;6.926;2022-08-25T10:40:20;100071.81;;;28.96;91.14
46836;BME280;32573;51.290;6.926;2022-08-25T10:42:58;100074.28;;;29.00;87.37
46836;BME280;32573;51.290;6.926;2022-08-25T10:45:30;100079.41;;;29.07;88.73
46836;BME280;32573;51.290;6.926;2022-08-25T10:48:40;100067.38;;;29.14;89.39
46836;BME280;32573;51.290;6.926;2022-08-25T10:54:10;100070.88;;;29.33;89.22
46836;BME280;32573;51.290;6.926;2022-08-25T10:56:44;100060.56;;;29.41;88.25
46836;BME280;32573;51.290;6.926;2022-08-25T10:59:29;100069.22;;;29.48;88.48
46836;BME280;32573;51.290;6.926;2022-08-25T11:02:36;100058.66;;;29.61;87.82
46836;BME280;32573;51.290;6.926;2022-08-25T11:05:16;100047.66;;;29.65;86.70
46836;BME280;32573;51.290;6.926;2022-08-25T11:07:59;100043.75;;;29.71;85.40
46836;BME280;32573;51.290;6.926;2022-08-25T11:10:38;100046.03;;;29.79;87.03
46836;BME280;32573;51.290;6.926;2022-08-25T11:13:14;100045.59;;;29.86;83.21
46836;BME280;32573;51.290;6.926;2022-08-25T11:15:52;100044.63;;;29.87;84.64
46836;BME280;32573;51.290;6.926;2022-08-25T11:18:47;100041.44;;;29.97;85.41
46836;BME280;32573;51.290;6.926;2022-08-25T11:21:22;100038.25;;;30.06;85.74
46836;BME280;32573;51.290;6.926;2022-08-25T11:23:56;100043.91;;;30.17;85.88
46836;BME280;32573;51.290;6.926;2022-08-25T11:26:32;100044.25;;;30.28;85.03
46836;BME280;32573;51.290;6.926;2022-08-25T11:29:11;100043.72;;;30.38;84.38
46836;BME280;32573;51.290;6.926;2022-08-25T11:31:43;100035.00;;;30.48;84.11
46836;BME280;32573;51.290;6.926;2022-08-25T11:34:20;100041.53;;;30.60;83.09
46836;BME280;32573;51.290;6.926;2022-08-25T11:36:53;100036.56;;;30.68;84.14
46836;BME280;32573;51.290;6.926;2022-08-25T11:39:36;100032.38;;;30.79;84.17
46836;BME280;32573;51.290;6.926;2022-08-25T11:42:16;100030.97;;;30.87;83.26
46836;BME280;32573;51.290;6.926;2022-08-25T11:44:57;100032.28;;;30.96;81.47
46836;BME280;32573;51.290;6.926;2022-08-25T11:47:49;100025.56;;;31.03;81.55
46836;BME280;32573;51.290;6.926;2022-08-25T11:50:31;100023.06;;;31.14;82.50
46836;BME280;32573;51.290;6.926;2022-08-25T11:53:17;100013.34;;;31.26;81.93
46836;BME280;32573;51.290;6.926;2022-08-25T11:55:58;100013.50;;;31.39;81.83
46836;BME280;32573;51.290;6.926;2022-08-25T11:58:41;100018.16;;;31.51;82.71
46836;BME280;32573;51.290;6.926;2022-08-25T12:04:37;100003.13;;;31.76;81.11
46836;BME280;32573;51.290;6.926;2022-08-25T12:07:26;100000.78;;;31.84;77.42
46836;BME280;32573;51.290;6.926;2022-08-25T12:10:15;99999.34;;;31.93;78.73
46836;BME280;32573;51.290;6.926;2022-08-25T12:13:25;99994.22;;;32.02;75.94
46836;BME280;32573;51.290;6.926;2022-08-25T12:15:58;99995.69;;;32.08;74.38
46836;BME280;32573;51.290;6.926;2022-08-25T12:18:44;99986.28;;;32.14;75.84
46836;BME280;32573;51.290;6.926;2022-08-25T12:21:31;99991.78;;;32.27;70.54
46836;BME280;32573;51.290;6.926;2022-08-25T12:24:18;99986.63;;;32.36;73.55
46836;BME280;32573;51.290;6.926;2022-08-25T12:26:54;99984.47;;;32.41;73.90
46836;BME280;32573;51.290;6.926;2022-08-25T12:29:31;99989.34;;;32.51;73.18
46836;BME280;32573;51.290;6.926;2022-08-25T12:32:24;99986.41;;;32.54;69.71
46836;BME280;32573;51.290;6.926;2022-08-25T12:35:20;99986.88;;;32.60;68.38
46836;BME280;32573;51.290;6.926;2022-08-25T12:38:02;99975.72;;;32.65;69.89
46836;BME280;32573;51.290;6.926;2022-08-25T12:40:35;99978.59;;;32.76;69.86
46836;BME280;32573;51.290;6.926;2022-08-25T12:43:20;99965.06;;;32.89;71.54
46836;BME280;32573;51.290;6.926;2022-08-25T12:45:52;99971.31;;;33.04;70.23
46836;BME280;32573;51.290;6.926;2022-08-25T12:48:52;99972.41;;;33.14;66.41
46836;BME280;32573;51.290;6.926;2022-08-25T12:51:24;99962.88;;;33.21;68.02
46836;BME280;32573;51.290;6.926;2022-08-25T12:53:58;99961.16;;;33.33;68.83
46836;BME280;32573;51.290;6.926;2022-08-25T12:56:34;99962.00;;;33.46;69.16
46836;BME280;32573;51.290;6.926;2022-08-25T12:59:18;99959.22;;;33.61;70.00
46836;BME280;32573;51.290;6.926;2022-08-25T13:02:24;99957.25;;;33.76;68.07
46836;BME280;32573;51.290;6.926;2022-08-25T13:05:12;99962.00;;;33.85;68.83
46836;BME280;32573;51.290;6.926;2022-08-25T13:07:57;99959.47;;;33.94;68.55
46836;BME280;32573;51.290;6.926;2022-08-25T13:10:40;99958.53;;;34.08;67.96
46836;BME280;32573;51.290;6.926;2022-08-25T13:13:15;99943.25;;;34.19;66.07
46836;BME280;32573;51.290;6.926;2022-08-25T13:15:59;99953.22;;;34.31;67.88
46836;BME280;32573;51.290;6.926;2022-08-25T13:18:30;99951.44;;;34.43;64.82
46836;BME280;32573;51.290;6.926;2022-08-25T13:21:05;99944.50;;;34.39;57.49
46836;BME280;32573;51.290;6.926;2022-08-25T13:23:37;99931.91;;;34.38;61.25
46836;BME280;32573;51.290;6.926;2022-08-25T13:26:10;99930.66;;;34.42;62.74
46836;BME280;32573;51.290;6.926;2022-08-25T13:28:41;99923.34;;;34.55;63.34
46836;BME280;32573;51.290;6.926;2022-08-25T13:31:19;99927.84;;;34.67;63.00